sensor_id;sensor_type;location;lat;lon;timestamp;P1;durP1;ratioP1;P2;durP2;ratioP2
52866;SDS011;38739;53.324;6.862;2023-05-17T00:02:11;17.70;;;3.00;;
52866;SDS011;38739;53.324;6.862;2023-05-17T00:04:36;18.13;;;3.15;;
52866;SDS011;38739;53.324;6.862;2023-05-17T00:07:02;16.40;;;3.30;;
52866;SDS011;38739;53.324;6.862;2023-05-17T00:09:28;18.70;;;3.28;;
52866;SDS011;38739;53.324;6.862;2023-05-17T00:11:53;18.35;;;3.85;;
52866;SDS011;38739;53.324;6.862;2023-05-17T00:14:19;17.67;;;3.15;;
52866;SDS011;38739;53.324;6.862;2023-05-17T00:16:45;17.17;;;3.05;;
52866;SDS011;38739;53.324;6.862;2023-05-17T00:19:11;23.17;;;3.45;;
52866;SDS011;38739;53.324;6.862;2023-05-17T00:21:36;20.13;;;3.55;;
52866;SDS011;38739;53.324;6.862;2023-05-17T00:24:02;19.30;;;4.05;;
52866;SDS011;38739;53.324;6.862;2023-05-17T00:26:28;19.52;;;3.17;;
52866;SDS011;38739;53.324;6.862;2023-05-17T00:28:54;23.45;;;3.50;;
52866;SDS011;38739;53.324;6.862;2023-05-17T00:31:19;16.13;;;3.00;;
52866;SDS011;38739;53.324;6.862;2023-05-17T00:33:45;20.35;;;3.13;;
52866;SDS011;38739;53.324;6.862;2023-05-17T00:36:11;21.30;;;3.42;;
52866;SDS011;38739;53.324;6.862;2023-05-17T00:38:37;17.75;;;3.28;;
52866;SDS011;38739;53.324;6.862;2023-05-17T00:41:03;17.17;;;2.75;;
52866;SDS011;38739;53.324;6.862;2023-05-17T00:43:28;17.02;;;3.08;;
52866;SDS011;38739;53.324;6.862;2023-05-17T00:45:55;17.55;;;2.80;;
52866;SDS011;38739;53.324;6.862;2023-05-17T00:48:20;21.23;;;3.15;;
52866;SDS011;38739;53.324;6.862;2023-05-17T00:50:49;17.52;;;3.00;;
52866;SDS011;38739;53.324;6.862;2023-05-17T00:53:19;15.00;;;2.35;;
52866;SDS011;38739;53.324;6.862;2023-05-17T00:55:46;15.77;;;2.67;;
52866;SDS011;38739;53.324;6.862;2023-05-17T00:58:12;16.48;;;2.47;;
52866;SDS011;38739;53.324;6.862;2023-05-17T01:00:39;16.73;;;2.20;;
52866;SDS011;38739;53.324;6.862;2023-05-17T01:03:05;13.98;;;2.38;;
52866;SDS011;38739;53.324;6.862;2023-05-17T01:05:32;14.70;;;2.20;;
52866;SDS011;38739;53.324;6.862;2023-05-17T01:07:57;16.05;;;2.50;;
52866;SDS011;38739;53.324;6.862;2023-05-17T01:10:41;12.73;;;2.30;;
52866;SDS011;38739;53.324;6.862;2023-05-17T01:13:25;16.02;;;2.80;;
52866;SDS011;38739;53.324;6.862;2023-05-17T01:16:09;14.57;;;2.38;;
52866;SDS011;38739;53.324;6.862;2023-05-17T01:18:47;15.57;;;2.10;;
52866;SDS011;38739;53.324;6.862;2023-05-17T01:26:53;15.18;;;2.03;;
52866;SDS011;38739;53.324;6.862;2023-05-17T01:29:22;13.48;;;2.20;;
52866;SDS011;38739;53.324;6.862;2023-05-17T01:31:49;15.50;;;2.70;;
52866;SDS011;38739;53.324;6.862;2023-05-17T01:34:26;16.90;;;2.30;;
52866;SDS011;38739;53.324;6.862;2023-05-17T01:36:53;13.63;;;2.38;;
52866;SDS011;38739;53.324;6.862;2023-05-17T01:39:19;19.25;;;2.83;;
52866;SDS011;38739;53.324;6.862;2023-05-17T01:41:45;15.30;;;3.17;;
52866;SDS011;38739;53.324;6.862;2023-05-17T01:47:02;16.20;;;2.90;;
52866;SDS011;38739;53.324;6.862;2023-05-17T01:49:37;20.08;;;2.90;;
52866;SDS011;38739;53.324;6.862;2023-05-17T01:52:13;21.05;;;3.08;;
52866;SDS011;38739;53.324;6.862;2023-05-17T01:57:51;14.23;;;2.83;;
52866;SDS011;38739;53.324;6.862;2023-05-17T02:00:19;17.83;;;2.28;;
52866;SDS011;38739;53.324;6.862;2023-05-17T02:02:48;16.65;;;2.45;;
52866;SDS011;38739;53.324;6.862;2023-05-17T02:05:14;14.48;;;2.55;;
52866;SDS011;38739;53.324;6.862;2023-05-17T02:07:40;13.93;;;2.42;;
52866;SDS011;38739;53.324;6.862;2023-05-17T02:10:06;12.43;;;1.92;;
52866;SDS011;38739;53.324;6.862;2023-05-17T02:12:32;16.42;;;2.13;;
52866;SDS011;38739;53.324;6.862;2023-05-17T02:14:57;12.20;;;2.10;;
52866;SDS011;38739;53.324;6.862;2023-05-17T02:17:23;10.73;;;2.40;;
52866;SDS011;38739;53.324;6.862;2023-05-17T02:19:49;19.85;;;2.65;;
52866;SDS011;38739;53.324;6.862;2023-05-17T02:22:15;15.15;;;2.10;;
52866;SDS011;38739;53.324;6.862;2023-05-17T02:24:40;8.55;;;2.17;;
52866;SDS011;38739;53.324;6.862;2023-05-17T02:27:06;13.77;;;2.55;;
52866;SDS011;38739;53.324;6.862;2023-05-17T02:29:32;14.18;;;2.25;;
52866;SDS011;38739;53.324;6.862;2023-05-17T02:31:58;12.57;;;2.35;;
52866;SDS011;38739;53.324;6.862;2023-05-17T02:34:24;12.15;;;2.10;;
52866;SDS011;38739;53.324;6.862;2023-05-17T02:36:50;9.57;;;1.95;;
52866;SDS011;38739;53.324;6.862;2023-05-17T02:39:16;14.15;;;2.58;;
52866;SDS011;38739;53.324;6.862;2023-05-17T02:41:42;17.98;;;2.30;;
52866;SDS011;38739;53.324;6.862;2023-05-17T02:44:08;15.75;;;2.50;;
52866;SDS011;38739;53.324;6.862;2023-05-17T02:46:33;14.80;;;2.17;;
52866;SDS011;38739;53.324;6.862;2023-05-17T02:48:59;13.70;;;2.28;;
52866;SDS011;38739;53.324;6.862;2023-05-17T02:51:25;9.55;;;1.80;;
52866;SDS011;38739;53.324;6.862;2023-05-17T02:53:50;11.57;;;1.80;;
52866;SDS011;38739;53.324;6.862;2023-05-17T02:56:16;10.43;;;2.10;;
52866;SDS011;38739;53.324;6.862;2023-05-17T02:58:42;12.45;;;2.40;;
52866;SDS011;38739;53.324;6.862;2023-05-17T03:01:08;13.38;;;1.92;;
52866;SDS011;38739;53.324;6.862;2023-05-17T03:03:34;14.35;;;1.90;;
52866;SDS011;38739;53.324;6.862;2023-05-17T03:06:00;12.77;;;1.70;;
52866;SDS011;38739;53.324;6.862;2023-05-17T03:08:27;11.57;;;2.00;;
52866;SDS011;38739;53.324;6.862;2023-05-17T03:10:53;13.63;;;1.90;;
52866;SDS011;38739;53.324;6.862;2023-05-17T03:13:19;10.82;;;1.90;;
52866;SDS011;38739;53.324;6.862;2023-05-17T03:15:45;14.07;;;2.08;;
52866;SDS011;38739;53.324;6.862;2023-05-17T03:18:10;12.18;;;1.70;;
52866;SDS011;38739;53.324;6.862;2023-05-17T03:20:36;12.52;;;2.00;;
52866;SDS011;38739;53.324;6.862;2023-05-17T03:23:01;12.55;;;2.22;;
52866;SDS011;38739;53.324;6.862;2023-05-17T03:25:27;10.38;;;1.80;;
52866;SDS011;38739;53.324;6.862;2023-05-17T03:27:53;7.97;;;1.67;;
52866;SDS011;38739;53.324;6.862;2023-05-17T03:30:18;13.98;;;2.00;;
52866;SDS011;38739;53.324;6.862;2023-05-17T03:32:44;12.98;;;1.88;;
52866;SDS011;38739;53.324;6.862;2023-05-17T03:35:10;12.00;;;1.83;;
52866;SDS011;38739;53.324;6.862;2023-05-17T03:37:36;12.63;;;2.10;;
52866;SDS011;38739;53.324;6.862;2023-05-17T03:40:02;10.13;;;1.73;;
52866;SDS011;38739;53.324;6.862;2023-05-17T03:42:27;10.73;;;1.50;;
52866;SDS011;38739;53.324;6.862;2023-05-17T03:44:53;9.95;;;1.85;;
52866;SDS011;38739;53.324;6.862;2023-05-17T03:47:19;16.05;;;2.33;;
52866;SDS011;38739;53.324;6.862;2023-05-17T03:49:47;10.60;;;1.95;;
52866;SDS011;38739;53.324;6.862;2023-05-17T03:52:14;11.25;;;1.70;;
52866;SDS011;38739;53.324;6.862;2023-05-17T03:54:39;11.13;;;2.10;;
52866;SDS011;38739;53.324;6.862;2023-05-17T03:57:05;13.77;;;2.10;;
52866;SDS011;38739;53.324;6.862;2023-05-17T03:59:31;14.30;;;2.40;;
52866;SDS011;38739;53.324;6.862;2023-05-17T04:01:56;12.32;;;2.42;;
52866;SDS011;38739;53.324;6.862;2023-05-17T04:04:22;13.07;;;2.10;;
52866;SDS011;38739;53.324;6.862;2023-05-17T04:06:48;8.43;;;1.67;;
52866;SDS011;38739;53.324;6.862;2023-05-17T04:09:13;13.60;;;2.10;;
52866;SDS011;38739;53.324;6.862;2023-05-17T04:11:40;12.02;;;1.90;;
52866;SDS011;38739;53.324;6.862;2023-05-17T04:14:06;10.02;;;1.65;;
52866;SDS011;38739;53.324;6.862;2023-05-17T04:16:32;10.32;;;1.83;;
52866;SDS011;38739;53.324;6.862;2023-05-17T04:18:58;12.95;;;2.28;;
52866;SDS011;38739;53.324;6.862;2023-05-17T04:21:25;12.85;;;2.05;;
52866;SDS011;38739;53.324;6.862;2023-05-17T04:23:51;10.02;;;1.70;;
52866;SDS011;38739;53.324;6.862;2023-05-17T04:26:16;16.30;;;1.88;;
52866;SDS011;38739;53.324;6.862;2023-05-17T04:28:43;10.20;;;1.70;;
52866;SDS011;38739;53.324;6.862;2023-05-17T04:31:08;12.93;;;1.80;;
52866;SDS011;38739;53.324;6.862;2023-05-17T04:33:35;14.00;;;2.13;;
52866;SDS011;38739;53.324;6.862;2023-05-17T04:36:01;10.95;;;1.60;;
52866;SDS011;38739;53.324;6.862;2023-05-17T04:38:28;15.82;;;2.53;;
52866;SDS011;38739;53.324;6.862;2023-05-17T04:40:59;13.80;;;2.58;;
52866;SDS011;38739;53.324;6.862;2023-05-17T04:43:31;18.23;;;2.20;;
52866;SDS011;38739;53.324;6.862;2023-05-17T04:45:57;14.27;;;2.50;;
52866;SDS011;38739;53.324;6.862;2023-05-17T04:48:24;14.13;;;2.47;;
52866;SDS011;38739;53.324;6.862;2023-05-17T04:50:51;13.88;;;2.42;;
52866;SDS011;38739;53.324;6.862;2023-05-17T04:53:18;15.25;;;2.20;;
52866;SDS011;38739;53.324;6.862;2023-05-17T04:55:43;13.52;;;2.33;;
52866;SDS011;38739;53.324;6.862;2023-05-17T04:58:10;10.98;;;1.77;;
52866;SDS011;38739;53.324;6.862;2023-05-17T05:00:35;13.55;;;2.78;;
52866;SDS011;38739;53.324;6.862;2023-05-17T05:03:01;13.50;;;2.10;;
52866;SDS011;38739;53.324;6.862;2023-05-17T05:05:29;8.10;;;1.48;;
52866;SDS011;38739;53.324;6.862;2023-05-17T05:07:55;15.32;;;2.28;;
52866;SDS011;38739;53.324;6.862;2023-05-17T05:10:21;17.00;;;2.63;;
52866;SDS011;38739;53.324;6.862;2023-05-17T05:12:47;14.43;;;2.38;;
52866;SDS011;38739;53.324;6.862;2023-05-17T05:15:13;11.68;;;2.17;;
52866;SDS011;38739;53.324;6.862;2023-05-17T05:17:39;14.23;;;2.35;;
52866;SDS011;38739;53.324;6.862;2023-05-17T05:20:07;10.32;;;1.70;;
52866;SDS011;38739;53.324;6.862;2023-05-17T05:22:34;14.07;;;2.30;;
52866;SDS011;38739;53.324;6.862;2023-05-17T05:24:59;12.88;;;2.13;;
52866;SDS011;38739;53.324;6.862;2023-05-17T05:27:25;12.02;;;2.30;;
52866;SDS011;38739;53.324;6.862;2023-05-17T05:29:51;13.45;;;2.25;;
52866;SDS011;38739;53.324;6.862;2023-05-17T05:32:17;18.35;;;2.40;;
52866;SDS011;38739;53.324;6.862;2023-05-17T05:34:43;14.27;;;1.88;;
52866;SDS011;38739;53.324;6.862;2023-05-17T05:37:09;13.40;;;2.20;;
52866;SDS011;38739;53.324;6.862;2023-05-17T05:39:35;19.88;;;2.78;;
52866;SDS011;38739;53.324;6.862;2023-05-17T05:42:00;11.30;;;2.33;;
52866;SDS011;38739;53.324;6.862;2023-05-17T05:44:28;16.83;;;2.85;;
52866;SDS011;38739;53.324;6.862;2023-05-17T05:46:54;15.85;;;2.72;;
52866;SDS011;38739;53.324;6.862;2023-05-17T05:49:20;16.95;;;2.75;;
52866;SDS011;38739;53.324;6.862;2023-05-17T05:51:46;19.48;;;2.88;;
52866;SDS011;38739;53.324;6.862;2023-05-17T05:54:12;13.75;;;2.58;;
52866;SDS011;38739;53.324;6.862;2023-05-17T05:56:38;17.02;;;2.60;;
52866;SDS011;38739;53.324;6.862;2023-05-17T05:59:03;14.20;;;2.47;;
52866;SDS011;38739;53.324;6.862;2023-05-17T06:01:30;13.50;;;2.50;;
52866;SDS011;38739;53.324;6.862;2023-05-17T06:03:55;15.50;;;3.03;;
52866;SDS011;38739;53.324;6.862;2023-05-17T06:06:21;23.13;;;3.17;;
52866;SDS011;38739;53.324;6.862;2023-05-17T06:08:47;17.60;;;2.95;;
52866;SDS011;38739;53.324;6.862;2023-05-17T06:11:12;17.35;;;2.72;;
52866;SDS011;38739;53.324;6.862;2023-05-17T06:13:38;15.50;;;2.47;;
52866;SDS011;38739;53.324;6.862;2023-05-17T06:16:04;15.43;;;2.55;;
52866;SDS011;38739;53.324;6.862;2023-05-17T06:18:30;20.30;;;2.70;;
52866;SDS011;38739;53.324;6.862;2023-05-17T06:20:56;15.70;;;2.95;;
52866;SDS011;38739;53.324;6.862;2023-05-17T06:23:22;15.93;;;2.55;;
52866;SDS011;38739;53.324;6.862;2023-05-17T06:25:48;13.65;;;2.50;;
52866;SDS011;38739;53.324;6.862;2023-05-17T06:28:14;16.33;;;2.45;;
52866;SDS011;38739;53.324;6.862;2023-05-17T06:30:39;13.70;;;2.33;;
52866;SDS011;38739;53.324;6.862;2023-05-17T06:33:05;15.43;;;2.10;;
52866;SDS011;38739;53.324;6.862;2023-05-17T06:35:31;12.30;;;1.92;;
52866;SDS011;38739;53.324;6.862;2023-05-17T06:37:57;16.33;;;1.80;;
52866;SDS011;38739;53.324;6.862;2023-05-17T06:40:22;12.30;;;2.40;;
52866;SDS011;38739;53.324;6.862;2023-05-17T06:42:48;16.73;;;2.70;;
52866;SDS011;38739;53.324;6.862;2023-05-17T06:45:14;13.25;;;1.80;;
52866;SDS011;38739;53.324;6.862;2023-05-17T06:47:39;11.32;;;2.08;;
52866;SDS011;38739;53.324;6.862;2023-05-17T06:50:05;8.45;;;1.75;;
52866;SDS011;38739;53.324;6.862;2023-05-17T06:52:33;12.48;;;2.30;;
52866;SDS011;38739;53.324;6.862;2023-05-17T06:54:59;9.65;;;2.10;;
52866;SDS011;38739;53.324;6.862;2023-05-17T06:57:25;12.48;;;2.45;;
52866;SDS011;38739;53.324;6.862;2023-05-17T06:59:50;10.82;;;1.80;;
52866;SDS011;38739;53.324;6.862;2023-05-17T07:02:17;10.98;;;2.00;;
52866;SDS011;38739;53.324;6.862;2023-05-17T07:04:43;10.18;;;1.92;;
52866;SDS011;38739;53.324;6.862;2023-05-17T07:07:08;11.50;;;2.10;;
52866;SDS011;38739;53.324;6.862;2023-05-17T07:09:35;14.23;;;2.20;;
52866;SDS011;38739;53.324;6.862;2023-05-17T07:12:01;10.63;;;1.85;;
52866;SDS011;38739;53.324;6.862;2023-05-17T07:14:29;16.40;;;2.60;;
52866;SDS011;38739;53.324;6.862;2023-05-17T07:16:54;13.50;;;2.08;;
52866;SDS011;38739;53.324;6.862;2023-05-17T07:19:20;15.52;;;2.05;;
52866;SDS011;38739;53.324;6.862;2023-05-17T07:21:46;10.10;;;1.90;;
52866;SDS011;38739;53.324;6.862;2023-05-17T07:24:11;10.82;;;1.95;;
52866;SDS011;38739;53.324;6.862;2023-05-17T07:26:37;10.85;;;2.45;;
52866;SDS011;38739;53.324;6.862;2023-05-17T07:29:03;10.02;;;2.00;;
52866;SDS011;38739;53.324;6.862;2023-05-17T07:31:29;11.63;;;2.30;;
52866;SDS011;38739;53.324;6.862;2023-05-17T07:33:54;12.88;;;2.05;;
52866;SDS011;38739;53.324;6.862;2023-05-17T07:36:20;11.85;;;2.13;;
52866;SDS011;38739;53.324;6.862;2023-05-17T07:38:45;12.13;;;2.08;;
52866;SDS011;38739;53.324;6.862;2023-05-17T07:41:11;11.90;;;2.05;;
52866;SDS011;38739;53.324;6.862;2023-05-17T07:43:40;11.30;;;1.90;;
52866;SDS011;38739;53.324;6.862;2023-05-17T07:46:06;10.07;;;2.08;;
52866;SDS011;38739;53.324;6.862;2023-05-17T07:48:32;10.32;;;1.70;;
52866;SDS011;38739;53.324;6.862;2023-05-17T07:50:58;13.43;;;2.42;;
52866;SDS011;38739;53.324;6.862;2023-05-17T07:53:24;10.25;;;2.13;;
52866;SDS011;38739;53.324;6.862;2023-05-17T07:55:49;13.30;;;1.85;;
52866;SDS011;38739;53.324;6.862;2023-05-17T07:58:16;7.97;;;1.67;;
52866;SDS011;38739;53.324;6.862;2023-05-17T08:00:41;11.98;;;2.03;;
52866;SDS011;38739;53.324;6.862;2023-05-17T08:03:07;15.32;;;2.50;;
52866;SDS011;38739;53.324;6.862;2023-05-17T08:05:33;12.73;;;2.28;;
52866;SDS011;38739;53.324;6.862;2023-05-17T08:07:59;11.40;;;2.45;;
52866;SDS011;38739;53.324;6.862;2023-05-17T08:10:25;8.73;;;1.42;;
52866;SDS011;38739;53.324;6.862;2023-05-17T08:12:52;10.25;;;1.88;;
52866;SDS011;38739;53.324;6.862;2023-05-17T08:15:18;11.85;;;1.90;;
52866;SDS011;38739;53.324;6.862;2023-05-17T08:17:43;11.43;;;2.05;;
52866;SDS011;38739;53.324;6.862;2023-05-17T08:20:09;12.40;;;2.28;;
52866;SDS011;38739;53.324;6.862;2023-05-17T08:22:35;9.98;;;1.70;;
52866;SDS011;38739;53.324;6.862;2023-05-17T08:25:01;10.10;;;1.70;;
52866;SDS011;38739;53.324;6.862;2023-05-17T08:27:27;10.27;;;1.52;;
52866;SDS011;38739;53.324;6.862;2023-05-17T08:29:55;10.52;;;1.98;;
52866;SDS011;38739;53.324;6.862;2023-05-17T08:32:22;12.90;;;2.13;;
52866;SDS011;38739;53.324;6.862;2023-05-17T08:34:48;9.35;;;1.60;;
52866;SDS011;38739;53.324;6.862;2023-05-17T08:37:14;8.35;;;1.77;;
52866;SDS011;38739;53.324;6.862;2023-05-17T08:39:39;10.68;;;2.38;;
52866;SDS011;38739;53.324;6.862;2023-05-17T08:42:08;9.77;;;1.85;;
52866;SDS011;38739;53.324;6.862;2023-05-17T08:44:34;11.85;;;2.22;;
52866;SDS011;38739;53.324;6.862;2023-05-17T08:47:00;16.52;;;2.25;;
52866;SDS011;38739;53.324;6.862;2023-05-17T08:49:28;10.02;;;1.88;;
52866;SDS011;38739;53.324;6.862;2023-05-17T08:51:58;13.35;;;2.08;;
52866;SDS011;38739;53.324;6.862;2023-05-17T08:54:26;14.00;;;1.92;;
52866;SDS011;38739;53.324;6.862;2023-05-17T08:56:53;13.55;;;1.95;;
52866;SDS011;38739;53.324;6.862;2023-05-17T08:59:22;14.93;;;2.10;;
52866;SDS011;38739;53.324;6.862;2023-05-17T09:01:51;10.90;;;2.20;;
52866;SDS011;38739;53.324;6.862;2023-05-17T09:04:19;10.27;;;1.63;;
52866;SDS011;38739;53.324;6.862;2023-05-17T09:06:45;9.48;;;1.77;;
52866;SDS011;38739;53.324;6.862;2023-05-17T09:09:11;9.65;;;2.00;;
52866;SDS011;38739;53.324;6.862;2023-05-17T09:11:37;11.38;;;1.98;;
52866;SDS011;38739;53.324;6.862;2023-05-17T09:14:04;11.07;;;2.05;;
52866;SDS011;38739;53.324;6.862;2023-05-17T09:16:31;9.07;;;1.60;;
52866;SDS011;38739;53.324;6.862;2023-05-17T09:18:59;12.70;;;2.10;;
52866;SDS011;38739;53.324;6.862;2023-05-17T09:21:25;12.40;;;1.65;;
52866;SDS011;38739;53.324;6.862;2023-05-17T09:23:52;11.70;;;1.80;;
52866;SDS011;38739;53.324;6.862;2023-05-17T09:26:19;11.50;;;2.00;;
52866;SDS011;38739;53.324;6.862;2023-05-17T09:28:45;10.70;;;1.73;;
52866;SDS011;38739;53.324;6.862;2023-05-17T09:31:14;14.90;;;2.13;;
52866;SDS011;38739;53.324;6.862;2023-05-17T09:33:49;15.00;;;2.13;;
52866;SDS011;38739;53.324;6.862;2023-05-17T09:38:52;7.50;;;1.58;;
52866;SDS011;38739;53.324;6.862;2023-05-17T09:41:32;7.70;;;1.60;;
52866;SDS011;38739;53.324;6.862;2023-05-17T09:44:07;7.47;;;1.65;;
52866;SDS011;38739;53.324;6.862;2023-05-17T09:46:34;10.63;;;1.70;;
52866;SDS011;38739;53.324;6.862;2023-05-17T09:49:00;10.77;;;1.80;;
52866;SDS011;38739;53.324;6.862;2023-05-17T09:51:38;7.28;;;1.30;;
52866;SDS011;38739;53.324;6.862;2023-05-17T09:54:12;11.40;;;2.17;;
52866;SDS011;38739;53.324;6.862;2023-05-17T09:56:38;9.32;;;1.70;;
52866;SDS011;38739;53.324;6.862;2023-05-17T09:59:12;10.77;;;1.95;;
52866;SDS011;38739;53.324;6.862;2023-05-17T10:01:39;7.22;;;1.27;;
52866;SDS011;38739;53.324;6.862;2023-05-17T10:04:10;10.55;;;1.85;;
52866;SDS011;38739;53.324;6.862;2023-05-17T10:06:40;12.20;;;1.70;;
52866;SDS011;38739;53.324;6.862;2023-05-17T10:09:09;9.68;;;1.98;;
52866;SDS011;38739;53.324;6.862;2023-05-17T10:11:37;10.15;;;1.95;;
52866;SDS011;38739;53.324;6.862;2023-05-17T10:14:09;9.02;;;1.70;;
52866;SDS011;38739;53.324;6.862;2023-05-17T10:16:38;10.30;;;1.80;;
52866;SDS011;38739;53.324;6.862;2023-05-17T10:19:05;6.40;;;1.45;;
52866;SDS011;38739;53.324;6.862;2023-05-17T10:21:31;12.55;;;2.13;;
52866;SDS011;38739;53.324;6.862;2023-05-17T10:23:58;8.45;;;2.03;;
52866;SDS011;38739;53.324;6.862;2023-05-17T10:26:26;9.73;;;1.90;;
52866;SDS011;38739;53.324;6.862;2023-05-17T10:29:02;8.07;;;1.60;;
52866;SDS011;38739;53.324;6.862;2023-05-17T10:31:29;6.57;;;1.50;;
52866;SDS011;38739;53.324;6.862;2023-05-17T10:34:01;6.70;;;1.58;;
52866;SDS011;38739;53.324;6.862;2023-05-17T10:36:28;7.75;;;1.63;;
52866;SDS011;38739;53.324;6.862;2023-05-17T10:38:54;5.30;;;1.27;;
52866;SDS011;38739;53.324;6.862;2023-05-17T10:41:21;9.27;;;1.85;;
52866;SDS011;38739;53.324;6.862;2023-05-17T10:43:50;9.18;;;1.88;;
52866;SDS011;38739;53.324;6.862;2023-05-17T10:46:17;7.45;;;1.85;;
52866;SDS011;38739;53.324;6.862;2023-05-17T10:48:52;6.00;;;1.50;;
52866;SDS011;38739;53.324;6.862;2023-05-17T10:51:22;7.97;;;1.55;;
52866;SDS011;38739;53.324;6.862;2023-05-17T10:54:11;8.20;;;1.55;;
52866;SDS011;38739;53.324;6.862;2023-05-17T10:56:51;8.88;;;1.60;;
52866;SDS011;38739;53.324;6.862;2023-05-17T10:59:21;7.78;;;1.52;;
52866;SDS011;38739;53.324;6.862;2023-05-17T11:01:59;5.45;;;1.33;;
52866;SDS011;38739;53.324;6.862;2023-05-17T11:04:33;7.85;;;1.55;;
52866;SDS011;38739;53.324;6.862;2023-05-17T11:15:07;11.93;;;2.20;;
52866;SDS011;38739;53.324;6.862;2023-05-17T11:17:35;8.65;;;2.15;;
52866;SDS011;38739;53.324;6.862;2023-05-17T11:20:08;10.02;;;2.20;;
52866;SDS011;38739;53.324;6.862;2023-05-17T11:23:04;12.25;;;2.30;;
52866;SDS011;38739;53.324;6.862;2023-05-17T11:25:38;8.60;;;1.75;;
52866;SDS011;38739;53.324;6.862;2023-05-17T11:28:05;11.80;;;2.28;;
52866;SDS011;38739;53.324;6.862;2023-05-17T11:30:32;7.60;;;1.63;;
52866;SDS011;38739;53.324;6.862;2023-05-17T11:33:02;12.82;;;2.22;;
52866;SDS011;38739;53.324;6.862;2023-05-17T11:35:31;11.35;;;2.20;;
52866;SDS011;38739;53.324;6.862;2023-05-17T11:38:10;10.32;;;2.00;;
52866;SDS011;38739;53.324;6.862;2023-05-17T11:40:38;11.98;;;1.83;;
52866;SDS011;38739;53.324;6.862;2023-05-17T11:43:08;10.27;;;1.92;;
52866;SDS011;38739;53.324;6.862;2023-05-17T11:48:15;8.10;;;2.10;;
52866;SDS011;38739;53.324;6.862;2023-05-17T11:50:42;12.93;;;2.50;;
52866;SDS011;38739;53.324;6.862;2023-05-17T11:53:09;9.27;;;2.15;;
52866;SDS011;38739;53.324;6.862;2023-05-17T11:58:06;14.27;;;2.20;;
52866;SDS011;38739;53.324;6.862;2023-05-17T12:00:33;9.52;;;2.13;;
52866;SDS011;38739;53.324;6.862;2023-05-17T12:03:18;8.23;;;1.80;;
52866;SDS011;38739;53.324;6.862;2023-05-17T12:05:46;8.60;;;2.00;;
52866;SDS011;38739;53.324;6.862;2023-05-17T12:08:17;8.57;;;1.95;;
52866;SDS011;38739;53.324;6.862;2023-05-17T12:10:53;9.57;;;1.80;;
52866;SDS011;38739;53.324;6.862;2023-05-17T12:13:20;13.90;;;2.20;;
52866;SDS011;38739;53.324;6.862;2023-05-17T12:15:56;7.57;;;1.65;;
52866;SDS011;38739;53.324;6.862;2023-05-17T12:21:03;7.35;;;2.10;;
52866;SDS011;38739;53.324;6.862;2023-05-17T12:23:31;6.93;;;1.70;;
52866;SDS011;38739;53.324;6.862;2023-05-17T12:26:02;8.68;;;2.05;;
52866;SDS011;38739;53.324;6.862;2023-05-17T12:28:32;8.77;;;2.15;;
52866;SDS011;38739;53.324;6.862;2023-05-17T12:30:59;9.15;;;1.85;;
52866;SDS011;38739;53.324;6.862;2023-05-17T12:33:37;6.93;;;1.60;;
52866;SDS011;38739;53.324;6.862;2023-05-17T12:36:05;10.73;;;2.08;;
52866;SDS011;38739;53.324;6.862;2023-05-17T12:38:36;9.15;;;1.92;;
52866;SDS011;38739;53.324;6.862;2023-05-17T12:41:04;10.50;;;2.03;;
52866;SDS011;38739;53.324;6.862;2023-05-17T12:43:34;7.53;;;2.00;;
52866;SDS011;38739;53.324;6.862;2023-05-17T12:46:05;10.73;;;2.30;;
52866;SDS011;38739;53.324;6.862;2023-05-17T12:48:36;9.75;;;2.00;;
52866;SDS011;38739;53.324;6.862;2023-05-17T12:53:36;7.72;;;2.03;;
52866;SDS011;38739;53.324;6.862;2023-05-17T12:56:02;8.15;;;2.08;;
52866;SDS011;38739;53.324;6.862;2023-05-17T12:58:28;9.43;;;2.10;;
52866;SDS011;38739;53.324;6.862;2023-05-17T13:00:55;9.63;;;2.00;;
52866;SDS011;38739;53.324;6.862;2023-05-17T13:03:27;8.35;;;1.95;;
52866;SDS011;38739;53.324;6.862;2023-05-17T13:06:01;7.43;;;1.70;;
52866;SDS011;38739;53.324;6.862;2023-05-17T13:08:29;8.05;;;1.73;;
52866;SDS011;38739;53.324;6.862;2023-05-17T13:11:08;9.40;;;1.90;;
52866;SDS011;38739;53.324;6.862;2023-05-17T13:13:38;10.23;;;1.83;;
52866;SDS011;38739;53.324;6.862;2023-05-17T13:16:05;10.90;;;1.77;;
52866;SDS011;38739;53.324;6.862;2023-05-17T13:18:45;7.30;;;1.70;;
52866;SDS011;38739;53.324;6.862;2023-05-17T13:21:12;6.93;;;1.63;;
52866;SDS011;38739;53.324;6.862;2023-05-17T13:23:41;9.65;;;1.70;;
52866;SDS011;38739;53.324;6.862;2023-05-17T13:26:11;10.90;;;1.75;;
52866;SDS011;38739;53.324;6.862;2023-05-17T13:28:37;7.53;;;1.80;;
52866;SDS011;38739;53.324;6.862;2023-05-17T13:31:04;10.68;;;1.77;;
52866;SDS011;38739;53.324;6.862;2023-05-17T13:33:30;7.28;;;1.95;;
52866;SDS011;38739;53.324;6.862;2023-05-17T13:35:56;9.70;;;1.55;;
52866;SDS011;38739;53.324;6.862;2023-05-17T13:38:22;6.85;;;1.80;;
52866;SDS011;38739;53.324;6.862;2023-05-17T13:40:47;9.13;;;1.52;;
52866;SDS011;38739;53.324;6.862;2023-05-17T13:43:13;11.45;;;2.15;;
52866;SDS011;38739;53.324;6.862;2023-05-17T13:45:39;7.18;;;1.65;;
52866;SDS011;38739;53.324;6.862;2023-05-17T13:48:05;5.72;;;1.60;;
52866;SDS011;38739;53.324;6.862;2023-05-17T13:50:31;5.13;;;1.45;;
52866;SDS011;38739;53.324;6.862;2023-05-17T13:52:57;5.80;;;1.55;;
52866;SDS011;38739;53.324;6.862;2023-05-17T13:55:23;6.30;;;1.48;;
52866;SDS011;38739;53.324;6.862;2023-05-17T13:57:49;6.07;;;1.40;;
52866;SDS011;38739;53.324;6.862;2023-05-17T14:00:14;7.68;;;1.67;;
52866;SDS011;38739;53.324;6.862;2023-05-17T14:02:40;8.02;;;1.50;;
52866;SDS011;38739;53.324;6.862;2023-05-17T14:05:06;5.35;;;1.52;;
52866;SDS011;38739;53.324;6.862;2023-05-17T14:07:34;7.15;;;1.90;;
52866;SDS011;38739;53.324;6.862;2023-05-17T14:10:00;8.20;;;1.77;;
52866;SDS011;38739;53.324;6.862;2023-05-17T14:12:26;8.50;;;1.73;;
52866;SDS011;38739;53.324;6.862;2023-05-17T14:14:52;7.90;;;1.98;;
52866;SDS011;38739;53.324;6.862;2023-05-17T14:17:18;4.65;;;1.42;;
52866;SDS011;38739;53.324;6.862;2023-05-17T14:19:44;11.75;;;1.85;;
52866;SDS011;38739;53.324;6.862;2023-05-17T14:22:09;10.35;;;2.05;;
52866;SDS011;38739;53.324;6.862;2023-05-17T14:24:35;9.45;;;1.98;;
52866;SDS011;38739;53.324;6.862;2023-05-17T14:27:01;10.57;;;1.98;;
52866;SDS011;38739;53.324;6.862;2023-05-17T14:29:26;6.40;;;1.60;;
52866;SDS011;38739;53.324;6.862;2023-05-17T14:31:54;8.65;;;1.85;;
52866;SDS011;38739;53.324;6.862;2023-05-17T14:34:19;10.52;;;2.58;;
52866;SDS011;38739;53.324;6.862;2023-05-17T14:36:45;6.80;;;1.83;;
52866;SDS011;38739;53.324;6.862;2023-05-17T14:39:11;7.22;;;1.40;;
52866;SDS011;38739;53.324;6.862;2023-05-17T14:41:37;10.30;;;1.77;;
52866;SDS011;38739;53.324;6.862;2023-05-17T14:44:03;4.30;;;1.40;;
52866;SDS011;38739;53.324;6.862;2023-05-17T14:46:29;5.47;;;1.40;;
52866;SDS011;38739;53.324;6.862;2023-05-17T14:48:55;6.28;;;1.25;;
52866;SDS011;38739;53.324;6.862;2023-05-17T14:51:20;7.63;;;1.80;;
52866;SDS011;38739;53.324;6.862;2023-05-17T14:53:46;10.60;;;1.85;;
52866;SDS011;38739;53.324;6.862;2023-05-17T14:56:12;6.07;;;1.40;;
52866;SDS011;38739;53.324;6.862;2023-05-17T14:58:39;4.75;;;1.33;;
52866;SDS011;38739;53.324;6.862;2023-05-17T15:01:06;6.93;;;1.30;;
52866;SDS011;38739;53.324;6.862;2023-05-17T15:03:32;4.78;;;1.30;;
52866;SDS011;38739;53.324;6.862;2023-05-17T15:05:58;5.32;;;1.55;;
52866;SDS011;38739;53.324;6.862;2023-05-17T15:08:25;7.88;;;1.55;;
52866;SDS011;38739;53.324;6.862;2023-05-17T15:10:51;6.00;;;1.63;;
52866;SDS011;38739;53.324;6.862;2023-05-17T15:13:18;7.40;;;1.63;;